GIA213 WAHI-WIII
Flight info
| Callsign | GIA213 |
|---|---|
| Flight time | 0h 49m |
| Altitude | 34000 |
| Route | CA W17S IMU |
| Aircraft | B738/M-SDE2E3FGHIRWXY/LB1 |
Departure
| Time | 2026-04-26 13:11 |
|---|---|
| Airport | Yogyakarta International Airport (WAHI) |
Arrival
| Time | 2026-04-26 14:01 |
|---|---|
| Airport | Soekarno-Hatta International Airport (WIII) |
| Time | Latitude | Longitude | Altitude | Speed | Heading |
|---|---|---|---|---|---|
| 2026-04-26 13:11 | -7.77786 | 109.96933 | 5275 ft | 281 kts | 311° |
| 2026-04-26 13:11 | -7.76528 | 109.95431 | 6307 ft | 285 kts | 310° |
| 2026-04-26 13:12 | -7.75292 | 109.93895 | 7309 ft | 289 kts | 309° |
| 2026-04-26 13:12 | -7.74048 | 109.92303 | 8287 ft | 293 kts | 308° |
| 2026-04-26 13:12 | -7.72801 | 109.90687 | 9242 ft | 296 kts | 308° |
| 2026-04-26 13:12 | -7.71548 | 109.89053 | 10166 ft | 300 kts | 308° |
| 2026-04-26 13:13 | -7.70252 | 109.87358 | 10701 ft | 318 kts | 308° |
| 2026-04-26 13:13 | -7.68850 | 109.85519 | 11198 ft | 335 kts | 308° |
| 2026-04-26 13:13 | -7.67435 | 109.83663 | 12031 ft | 340 kts | 308° |
| 2026-04-26 13:13 | -7.65985 | 109.81762 | 12736 ft | 347 kts | 308° |
| 2026-04-26 13:14 | -7.64511 | 109.79828 | 13573 ft | 350 kts | 308° |
| 2026-04-26 13:14 | -7.63026 | 109.77878 | 14314 ft | 355 kts | 308° |
| 2026-04-26 13:14 | -7.61531 | 109.75917 | 15080 ft | 359 kts | 308° |
| 2026-04-26 13:14 | -7.60009 | 109.73921 | 15808 ft | 363 kts | 308° |
| 2026-04-26 13:15 | -7.58465 | 109.71894 | 16533 ft | 367 kts | 308° |
| 2026-04-26 13:15 | -7.56898 | 109.69840 | 17224 ft | 371 kts | 308° |
| 2026-04-26 13:15 | -7.55329 | 109.67781 | 17893 ft | 375 kts | 308° |
| 2026-04-26 13:15 | -7.54266 | 109.66387 | 18337 ft | 377 kts | 308° |
| 2026-04-26 13:16 | -7.52122 | 109.63577 | 19200 ft | 382 kts | 308° |
| 2026-04-26 13:16 | -7.50501 | 109.61453 | 19808 ft | 386 kts | 308° |
| 2026-04-26 13:16 | -7.48878 | 109.59325 | 20423 ft | 389 kts | 308° |
| 2026-04-26 13:16 | -7.47220 | 109.57153 | 21001 ft | 392 kts | 308° |
| 2026-04-26 13:17 | -7.43884 | 109.52782 | 22116 ft | 399 kts | 308° |
| 2026-04-26 13:17 | -7.42180 | 109.50550 | 22649 ft | 402 kts | 308° |
| 2026-04-26 13:18 | -7.38763 | 109.46075 | 23677 ft | 408 kts | 308° |
| 2026-04-26 13:18 | -7.37018 | 109.43790 | 24181 ft | 411 kts | 308° |
| 2026-04-26 13:18 | -7.33532 | 109.39226 | 25125 ft | 417 kts | 308° |
| 2026-04-26 13:19 | -7.31752 | 109.36897 | 25562 ft | 420 kts | 308° |
| 2026-04-26 13:19 | -7.29981 | 109.34579 | 26007 ft | 422 kts | 308° |
| 2026-04-26 13:19 | -7.28184 | 109.32228 | 26439 ft | 425 kts | 308° |
| 2026-04-26 13:19 | -7.26369 | 109.29852 | 26836 ft | 428 kts | 308° |
| 2026-04-26 13:20 | -7.24577 | 109.27508 | 27238 ft | 430 kts | 308° |
| 2026-04-26 13:20 | -7.22735 | 109.25100 | 27640 ft | 432 kts | 308° |
| 2026-04-26 13:20 | -7.20911 | 109.22714 | 28007 ft | 435 kts | 309° |
| 2026-04-26 13:20 | -7.19072 | 109.20309 | 28385 ft | 437 kts | 309° |
| 2026-04-26 13:21 | -7.17202 | 109.17865 | 28750 ft | 439 kts | 309° |
| 2026-04-26 13:21 | -7.15979 | 109.16267 | 28973 ft | 441 kts | 309° |
| 2026-04-26 13:21 | -7.13468 | 109.12984 | 29440 ft | 444 kts | 309° |
| 2026-04-26 13:21 | -7.11591 | 109.10530 | 29760 ft | 446 kts | 309° |
| 2026-04-26 13:22 | -7.09688 | 109.08044 | 30092 ft | 448 kts | 309° |
| 2026-04-26 13:22 | -7.07786 | 109.05559 | 30402 ft | 450 kts | 309° |
| 2026-04-26 13:22 | -7.05882 | 109.03071 | 30700 ft | 452 kts | 309° |
| 2026-04-26 13:22 | -7.03998 | 109.00611 | 30989 ft | 454 kts | 309° |
| 2026-04-26 13:23 | -7.02082 | 108.98109 | 31276 ft | 456 kts | 309° |
| 2026-04-26 13:23 | -7.00148 | 108.95583 | 31542 ft | 458 kts | 309° |
| 2026-04-26 13:23 | -6.98182 | 108.93018 | 31834 ft | 460 kts | 309° |
| 2026-04-26 13:23 | -6.96255 | 108.90503 | 32092 ft | 462 kts | 309° |
| 2026-04-26 13:24 | -6.94280 | 108.87925 | 32366 ft | 463 kts | 309° |
| 2026-04-26 13:24 | -6.92311 | 108.85355 | 32620 ft | 465 kts | 309° |
| 2026-04-26 13:24 | -6.90331 | 108.82772 | 32881 ft | 466 kts | 309° |
| 2026-04-26 13:24 | -6.88362 | 108.80203 | 33132 ft | 468 kts | 309° |
| 2026-04-26 13:25 | -6.86367 | 108.77600 | 33402 ft | 469 kts | 309° |
| 2026-04-26 13:25 | -6.84393 | 108.75027 | 33684 ft | 469 kts | 309° |
| 2026-04-26 13:25 | -6.82397 | 108.72424 | 33927 ft | 470 kts | 309° |
| 2026-04-26 13:26 | -6.78369 | 108.67175 | 33969 ft | 479 kts | 309° |
| 2026-04-26 13:26 | -6.74276 | 108.61842 | 33965 ft | 485 kts | 309° |
| 2026-04-26 13:27 | -6.69872 | 108.56783 | 33963 ft | 483 kts | 319° |
| 2026-04-26 13:27 | -6.64370 | 108.52972 | 33970 ft | 478 kts | 333° |
| 2026-04-26 13:28 | -6.58593 | 108.49742 | 33965 ft | 479 kts | 332° |
| 2026-04-26 13:28 | -6.52807 | 108.46479 | 33966 ft | 478 kts | 333° |
| 2026-04-26 13:29 | -6.47020 | 108.43227 | 33966 ft | 478 kts | 333° |
| 2026-04-26 13:29 | -6.41192 | 108.39956 | 33966 ft | 478 kts | 333° |
| 2026-04-26 13:30 | -6.35405 | 108.36707 | 33966 ft | 478 kts | 332° |
| 2026-04-26 13:30 | -6.29918 | 108.32958 | 33965 ft | 481 kts | 322° |
| 2026-04-26 13:31 | -6.25100 | 108.28289 | 33968 ft | 482 kts | 316° |
| 2026-04-26 13:31 | -6.20439 | 108.23505 | 33965 ft | 483 kts | 316° |
| 2026-04-26 13:32 | -6.15752 | 108.18687 | 33966 ft | 483 kts | 316° |
| 2026-04-26 13:32 | -6.11059 | 108.13850 | 33966 ft | 483 kts | 316° |
| 2026-04-26 13:33 | -6.06388 | 108.09061 | 33966 ft | 483 kts | 316° |
| 2026-04-26 13:33 | -6.01699 | 108.04221 | 33964 ft | 483 kts | 314° |
| 2026-04-26 13:34 | -5.97963 | 107.98652 | 33965 ft | 487 kts | 296° |
| 2026-04-26 13:34 | -5.96842 | 107.95445 | 33965 ft | 489 kts | 284° |
| 2026-04-26 13:34 | -5.96310 | 107.92091 | 33969 ft | 490 kts | 275° |
| 2026-04-26 13:35 | -5.96193 | 107.85344 | 33966 ft | 491 kts | 271° |
| 2026-04-26 13:35 | -5.96178 | 107.78488 | 33966 ft | 491 kts | 271° |
| 2026-04-26 13:36 | -5.96165 | 107.71653 | 33966 ft | 491 kts | 271° |
| 2026-04-26 13:36 | -5.96157 | 107.64802 | 33966 ft | 491 kts | 271° |
| 2026-04-26 13:37 | -5.96155 | 107.57967 | 33966 ft | 491 kts | 271° |
| 2026-04-26 13:37 | -5.96154 | 107.51120 | 33966 ft | 491 kts | 271° |
| 2026-04-26 13:38 | -5.96153 | 107.44299 | 33966 ft | 491 kts | 271° |
| 2026-04-26 13:38 | -5.96152 | 107.37416 | 33966 ft | 491 kts | 271° |
| 2026-04-26 13:39 | -5.96149 | 107.30566 | 33966 ft | 491 kts | 271° |
| 2026-04-26 13:39 | -5.96139 | 107.23806 | 33840 ft | 478 kts | 271° |
| 2026-04-26 13:39 | -5.96134 | 107.20511 | 33539 ft | 464 kts | 271° |
| 2026-04-26 13:40 | -5.96129 | 107.17284 | 33029 ft | 457 kts | 271° |
| 2026-04-26 13:40 | -5.96123 | 107.14126 | 32431 ft | 453 kts | 271° |
| 2026-04-26 13:40 | -5.96117 | 107.10980 | 31739 ft | 450 kts | 271° |
| 2026-04-26 13:40 | -5.96112 | 107.07851 | 31005 ft | 449 kts | 271° |
| 2026-04-26 13:41 | -5.96106 | 107.04734 | 30225 ft | 449 kts | 271° |
| 2026-04-26 13:41 | -5.96099 | 107.01610 | 29397 ft | 449 kts | 271° |
| 2026-04-26 13:41 | -5.96092 | 106.98498 | 28561 ft | 450 kts | 270° |
| 2026-04-26 13:41 | -5.96084 | 106.95374 | 27651 ft | 451 kts | 270° |
| 2026-04-26 13:42 | -5.96076 | 106.92200 | 26717 ft | 452 kts | 270° |
| 2026-04-26 13:42 | -5.96069 | 106.89082 | 25748 ft | 453 kts | 270° |
| 2026-04-26 13:42 | -5.96061 | 106.85910 | 24751 ft | 454 kts | 270° |
| 2026-04-26 13:42 | -5.96083 | 106.82778 | 23845 ft | 452 kts | 267° |
| 2026-04-26 13:43 | -5.96401 | 106.79653 | 22981 ft | 449 kts | 261° |
| 2026-04-26 13:43 | -5.97069 | 106.76601 | 22146 ft | 444 kts | 253° |
| 2026-04-26 13:43 | -5.98126 | 106.73714 | 21352 ft | 439 kts | 248° |
| 2026-04-26 13:43 | -5.99263 | 106.70940 | 20558 ft | 434 kts | 248° |
| 2026-04-26 13:44 | -6.00404 | 106.68122 | 19756 ft | 429 kts | 248° |
| 2026-04-26 13:44 | -6.01508 | 106.65382 | 18981 ft | 424 kts | 248° |
| 2026-04-26 13:44 | -6.02609 | 106.62653 | 18203 ft | 419 kts | 248° |
| 2026-04-26 13:44 | -6.03692 | 106.59972 | 17433 ft | 414 kts | 248° |
| 2026-04-26 13:45 | -6.04767 | 106.57310 | 16670 ft | 409 kts | 248° |
| 2026-04-26 13:45 | -6.05827 | 106.54686 | 15906 ft | 405 kts | 248° |
| 2026-04-26 13:45 | -6.06865 | 106.52111 | 15159 ft | 400 kts | 248° |
| 2026-04-26 13:45 | -6.07897 | 106.49555 | 14407 ft | 395 kts | 248° |
| 2026-04-26 13:46 | -6.08951 | 106.47024 | 13652 ft | 391 kts | 244° |
| 2026-04-26 13:46 | -6.10474 | 106.44822 | 12878 ft | 387 kts | 224° |
| 2026-04-26 13:46 | -6.12705 | 106.43337 | 12141 ft | 382 kts | 201° |
| 2026-04-26 13:46 | -6.15274 | 106.42865 | 11395 ft | 377 kts | 179° |
| 2026-04-26 13:47 | -6.17835 | 106.43171 | 10704 ft | 371 kts | 171° |
| 2026-04-26 13:47 | -6.21965 | 106.42574 | 10371 ft | 368 kts | 210° |
| 2026-04-26 13:48 | -6.23898 | 106.40882 | 10243 ft | 365 kts | 233° |
| 2026-04-26 13:48 | -6.24945 | 106.38660 | 9606 ft | 347 kts | 260° |
| 2026-04-26 13:48 | -6.24837 | 106.36363 | 9310 ft | 321 kts | 288° |
| 2026-04-26 13:48 | -6.23811 | 106.34465 | 9024 ft | 298 kts | 309° |
| 2026-04-26 13:49 | -6.22564 | 106.32914 | 8703 ft | 283 kts | 313° |
| 2026-04-26 13:49 | -6.21033 | 106.31694 | 8055 ft | 279 kts | 337° |
| 2026-04-26 13:49 | -6.19190 | 106.31271 | 7546 ft | 272 kts | 355° |
| 2026-04-26 13:49 | -6.17321 | 106.31005 | 6940 ft | 270 kts | 350° |
| 2026-04-26 13:50 | -6.15502 | 106.30638 | 6344 ft | 269 kts | 350° |
| 2026-04-26 13:50 | -6.13671 | 106.30291 | 5745 ft | 267 kts | 351° |
| 2026-04-26 13:50 | -6.11852 | 106.29958 | 5157 ft | 265 kts | 351° |
| 2026-04-26 13:50 | -6.10048 | 106.29630 | 4572 ft | 263 kts | 351° |
| 2026-04-26 13:51 | -6.08261 | 106.29373 | 3990 ft | 261 kts | 359° |
| 2026-04-26 13:51 | -6.06476 | 106.29571 | 3393 ft | 258 kts | 19° |
| 2026-04-26 13:51 | -6.04913 | 106.30382 | 2827 ft | 253 kts | 40° |
| 2026-04-26 13:51 | -6.03701 | 106.31644 | 2267 ft | 249 kts | 56° |
| 2026-04-26 13:52 | -6.02986 | 106.33167 | 2061 ft | 241 kts | 77° |
| 2026-04-26 13:52 | -6.02713 | 106.34860 | 2080 ft | 247 kts | 83° |
| 2026-04-26 13:52 | -6.02635 | 106.35565 | 2076 ft | 247 kts | 87° |
| 2026-04-26 13:52 | -6.02618 | 106.35967 | 2072 ft | 247 kts | 91° |
| 2026-04-26 13:53 | -6.02873 | 106.37661 | 2068 ft | 246 kts | 110° |
| 2026-04-26 13:53 | -6.03747 | 106.39129 | 2074 ft | 246 kts | 131° |
| 2026-04-26 13:53 | -6.05008 | 106.40286 | 2077 ft | 247 kts | 144° |
| 2026-04-26 13:53 | -6.06525 | 106.41084 | 2070 ft | 248 kts | 162° |
| 2026-04-26 13:54 | -6.08207 | 106.41428 | 2078 ft | 249 kts | 169° |
| 2026-04-26 13:54 | -6.09918 | 106.41732 | 2074 ft | 249 kts | 168° |
| 2026-04-26 13:54 | -6.11611 | 106.42041 | 2092 ft | 244 kts | 169° |
| 2026-04-26 13:55 | -6.14596 | 106.42579 | 1990 ft | 198 kts | 168° |
| 2026-04-26 13:55 | -6.15476 | 106.42738 | 1864 ft | 190 kts | 168° |
| 2026-04-26 13:55 | -6.17693 | 106.44120 | 1390 ft | 165 kts | 98° |
| 2026-04-26 13:56 | -6.17595 | 106.45265 | 1248 ft | 165 kts | 83° |
| 2026-04-26 13:56 | -6.17507 | 106.46410 | 1102 ft | 166 kts | 90° |
| 2026-04-26 13:56 | -6.17471 | 106.47575 | 951 ft | 165 kts | 90° |
| 2026-04-26 13:56 | -6.17439 | 106.48727 | 805 ft | 164 kts | 90° |
| 2026-04-26 13:57 | -6.17257 | 106.49832 | 756 ft | 158 kts | 70° |
| 2026-04-26 13:57 | -6.16827 | 106.50835 | 879 ft | 157 kts | 70° |
| 2026-04-26 13:57 | -6.16416 | 106.51849 | 802 ft | 154 kts | 70° |
| 2026-04-26 13:57 | -6.16017 | 106.52842 | 1118 ft | 151 kts | 70° |
| 2026-04-26 13:58 | -6.15637 | 106.53789 | 1092 ft | 142 kts | 70° |
| 2026-04-26 13:58 | -6.15269 | 106.54721 | 910 ft | 142 kts | 70° |
| 2026-04-26 13:58 | -6.14886 | 106.55621 | 907 ft | 140 kts | 68° |
| 2026-04-26 13:58 | -6.14497 | 106.56537 | 986 ft | 140 kts | 71° |
| 2026-04-26 13:59 | -6.14138 | 106.57437 | 913 ft | 141 kts | 73° |
| 2026-04-26 13:59 | -6.13802 | 106.58365 | 854 ft | 139 kts | 72° |
| 2026-04-26 13:59 | -6.13432 | 106.59273 | 757 ft | 141 kts | 71° |
| 2026-04-26 14:00 | -6.12334 | 106.61977 | 419 ft | 140 kts | 72° |
| 2026-04-26 14:00 | -6.11995 | 106.62875 | 266 ft | 137 kts | 72° |
| 2026-04-26 14:00 | -6.11763 | 106.63489 | 241 ft | 141 kts | 71° |
| 2026-04-26 14:01 | -6.11285 | 106.64703 | 60 ft | 140 kts | 71° |
| 2026-04-26 14:01 | -6.10987 | 106.65476 | 48 ft | 82 kts | 64° |
| 2026-04-26 14:01 | -6.10860 | 106.65794 | 48 ft | 31 kts | 67° |
| 2026-04-26 14:01 | -6.10778 | 106.65990 | 48 ft | 29 kts | 64° |
| 2026-04-26 14:02 | -6.10709 | 106.66181 | 48 ft | 29 kts | 69° |
| 2026-04-26 14:02 | -6.10646 | 106.66359 | 48 ft | 23 kts | 76° |
| 2026-04-26 14:02 | -6.10632 | 106.66484 | 48 ft | 14 kts | 85° |
| 2026-04-26 14:02 | -6.10639 | 106.66569 | 48 ft | 10 kts | 101° |
| 2026-04-26 14:03 | -6.10666 | 106.66639 | 48 ft | 8 kts | 133° |
| 2026-04-26 14:03 | -6.10712 | 106.66664 | 48 ft | 6 kts | 159° |
| 2026-04-26 14:03 | -6.10781 | 106.66672 | 48 ft | 9 kts | 205° |
| 2026-04-26 14:03 | -6.10829 | 106.66589 | 48 ft | 19 kts | 248° |
| 2026-04-26 14:04 | -6.10893 | 106.66434 | 48 ft | 26 kts | 250° |
| 2026-04-26 14:04 | -6.10964 | 106.66254 | 48 ft | 29 kts | 247° |
| 2026-04-26 14:04 | -6.11040 | 106.66062 | 48 ft | 20 kts | 247° |
| 2026-04-26 14:04 | -6.11081 | 106.65997 | 48 ft | 7 kts | 210° |
| 2026-04-26 14:05 | -6.11137 | 106.66008 | 48 ft | 13 kts | 155° |
| 2026-04-26 14:05 | -6.11234 | 106.66068 | 48 ft | 20 kts | 119° |
| 2026-04-26 14:05 | -6.11260 | 106.66183 | 48 ft | 14 kts | 99° |
| 2026-04-26 14:05 | -6.11288 | 106.66260 | 48 ft | 9 kts | 141° |
| 2026-04-26 14:06 | -6.11326 | 106.66312 | 48 ft | 9 kts | 84° |
| 2026-04-26 14:06 | -6.11298 | 106.66390 | 48 ft | 15 kts | 70° |
| 2026-04-26 14:06 | -6.11252 | 106.66505 | 48 ft | 17 kts | 66° |
| 2026-04-26 14:06 | -6.11208 | 106.66607 | 48 ft | 15 kts | 72° |
| 2026-04-26 14:07 | -6.11174 | 106.66712 | 48 ft | 15 kts | 69° |
| 2026-04-26 14:07 | -6.11138 | 106.66811 | 48 ft | 12 kts | 84° |
| 2026-04-26 14:07 | -6.11172 | 106.66847 | 48 ft | 9 kts | 162° |
| 2026-04-26 14:07 | -6.11245 | 106.66876 | 48 ft | 13 kts | 156° |
| 2026-04-26 14:08 | -6.11338 | 106.66914 | 48 ft | 14 kts | 159° |
| 2026-04-26 14:08 | -6.11414 | 106.66943 | 48 ft | 7 kts | 160° |
| 2026-04-26 14:08 | -6.11446 | 106.66956 | 48 ft | 2 kts | 142° |
| 2026-04-26 14:08 | -6.11452 | 106.66971 | 48 ft | 3 kts | 86° |
| 2026-04-26 14:09 | -6.11441 | 106.67008 | 48 ft | 7 kts | 66° |
| 2026-04-26 14:09 | -6.11430 | 106.67033 | 48 ft | 1 kts | 66° |
| 2026-04-26 14:09 | -6.11429 | 106.67035 | 48 ft | 0 kts | 66° |